sensor_id;sensor_type;location;lat;lon;timestamp;temperature;humidity
12470;DHT22;36499;46.484;13.832;2022-11-12T00:00:33;4.50;99.90
12470;DHT22;36499;46.484;13.832;2022-11-12T00:03:01;4.50;99.90
12470;DHT22;36499;46.484;13.832;2022-11-12T00:05:28;4.40;99.90
12470;DHT22;36499;46.484;13.832;2022-11-12T00:07:57;4.40;99.90
12470;DHT22;36499;46.484;13.832;2022-11-12T00:10:24;4.40;99.90
12470;DHT22;36499;46.484;13.832;2022-11-12T00:12:52;4.40;99.90
12470;DHT22;36499;46.484;13.832;2022-11-12T00:15:20;4.40;99.90
12470;DHT22;36499;46.484;13.832;2022-11-12T00:17:47;4.30;99.90
12470;DHT22;36499;46.484;13.832;2022-11-12T00:20:15;4.40;99.90
12470;DHT22;36499;46.484;13.832;2022-11-12T00:22:42;4.40;99.90
12470;DHT22;36499;46.484;13.832;2022-11-12T00:25:10;4.40;99.90
12470;DHT22;36499;46.484;13.832;2022-11-12T00:27:37;4.40;99.90
12470;DHT22;36499;46.484;13.832;2022-11-12T00:30:06;4.30;99.90
12470;DHT22;36499;46.484;13.832;2022-11-12T00:32:35;4.30;99.90
12470;DHT22;36499;46.484;13.832;2022-11-12T00:35:02;4.30;99.90
12470;DHT22;36499;46.484;13.832;2022-11-12T00:37:29;4.30;99.90
12470;DHT22;36499;46.484;13.832;2022-11-12T00:39:56;4.30;99.90
12470;DHT22;36499;46.484;13.832;2022-11-12T00:42:24;4.20;99.90
12470;DHT22;36499;46.484;13.832;2022-11-12T00:44:51;4.20;99.90
12470;DHT22;36499;46.484;13.832;2022-11-12T00:47:19;4.30;99.90
12470;DHT22;36499;46.484;13.832;2022-11-12T00:49:46;4.20;99.90
12470;DHT22;36499;46.484;13.832;2022-11-12T00:52:13;4.30;99.90
12470;DHT22;36499;46.484;13.832;2022-11-12T00:54:40;4.20;99.90
12470;DHT22;36499;46.484;13.832;2022-11-12T00:57:07;4.20;99.90
12470;DHT22;36499;46.484;13.832;2022-11-12T00:59:35;4.20;99.90
12470;DHT22;36499;46.484;13.832;2022-11-12T01:02:02;4.20;99.90
12470;DHT22;36499;46.484;13.832;2022-11-12T01:04:30;4.20;99.90
12470;DHT22;36499;46.484;13.832;2022-11-12T01:06:57;4.20;99.90
12470;DHT22;36499;46.484;13.832;2022-11-12T01:09:24;4.20;99.90
12470;DHT22;36499;46.484;13.832;2022-11-12T01:11:51;4.20;99.90
12470;DHT22;36499;46.484;13.832;2022-11-12T01:14:18;4.20;99.90
12470;DHT22;36499;46.484;13.832;2022-11-12T01:16:47;4.10;99.90
12470;DHT22;36499;46.484;13.832;2022-11-12T01:19:14;4.20;99.90
12470;DHT22;36499;46.484;13.832;2022-11-12T01:21:42;4.20;99.90
12470;DHT22;36499;46.484;13.832;2022-11-12T01:24:10;4.20;99.90
12470;DHT22;36499;46.484;13.832;2022-11-12T01:26:38;4.20;99.90
12470;DHT22;36499;46.484;13.832;2022-11-12T01:29:05;4.20;99.90
12470;DHT22;36499;46.484;13.832;2022-11-12T01:31:35;4.20;99.90
12470;DHT22;36499;46.484;13.832;2022-11-12T01:34:06;4.20;99.90
12470;DHT22;36499;46.484;13.832;2022-11-12T01:36:36;4.30;99.90
12470;DHT22;36499;46.484;13.832;2022-11-12T01:39:06;4.20;99.90
12470;DHT22;36499;46.484;13.832;2022-11-12T01:41:36;4.20;99.90
12470;DHT22;36499;46.484;13.832;2022-11-12T01:44:11;4.20;99.90
12470;DHT22;36499;46.484;13.832;2022-11-12T01:46:57;4.20;99.90
12470;DHT22;36499;46.484;13.832;2022-11-12T01:49:33;4.20;99.90
12470;DHT22;36499;46.484;13.832;2022-11-12T01:52:12;4.20;99.90
12470;DHT22;36499;46.484;13.832;2022-11-12T01:54:43;4.20;99.90
12470;DHT22;36499;46.484;13.832;2022-11-12T01:57:15;4.20;99.90
12470;DHT22;36499;46.484;13.832;2022-11-12T01:59:46;4.10;99.90
12470;DHT22;36499;46.484;13.832;2022-11-12T02:02:17;4.10;99.90
12470;DHT22;36499;46.484;13.832;2022-11-12T02:04:46;4.10;99.90
12470;DHT22;36499;46.484;13.832;2022-11-12T02:07:15;4.00;99.90
12470;DHT22;36499;46.484;13.832;2022-11-12T02:09:44;4.00;99.90
12470;DHT22;36499;46.484;13.832;2022-11-12T02:12:11;4.00;99.90
12470;DHT22;36499;46.484;13.832;2022-11-12T02:14:59;3.90;99.90
12470;DHT22;36499;46.484;13.832;2022-11-12T02:17:25;3.90;99.90
12470;DHT22;36499;46.484;13.832;2022-11-12T02:19:57;3.90;99.90
12470;DHT22;36499;46.484;13.832;2022-11-12T02:22:26;3.90;99.90
12470;DHT22;36499;46.484;13.832;2022-11-12T02:24:53;3.80;99.90
12470;DHT22;36499;46.484;13.832;2022-11-12T02:27:20;3.80;99.90
12470;DHT22;36499;46.484;13.832;2022-11-12T02:29:48;3.80;99.90
12470;DHT22;36499;46.484;13.832;2022-11-12T02:32:15;3.90;99.90
12470;DHT22;36499;46.484;13.832;2022-11-12T02:34:42;3.80;99.90
12470;DHT22;36499;46.484;13.832;2022-11-12T02:37:09;3.80;99.90
12470;DHT22;36499;46.484;13.832;2022-11-12T02:39:38;3.80;99.90
12470;DHT22;36499;46.484;13.832;2022-11-12T02:42:05;3.80;99.90
12470;DHT22;36499;46.484;13.832;2022-11-12T02:44:32;3.80;99.90
12470;DHT22;36499;46.484;13.832;2022-11-12T02:46:59;3.80;99.90
12470;DHT22;36499;46.484;13.832;2022-11-12T02:49:26;3.70;99.90
12470;DHT22;36499;46.484;13.832;2022-11-12T02:51:53;3.70;99.90
12470;DHT22;36499;46.484;13.832;2022-11-12T02:54:20;3.70;99.90
12470;DHT22;36499;46.484;13.832;2022-11-12T02:56:49;3.80;99.90
12470;DHT22;36499;46.484;13.832;2022-11-12T02:59:16;3.80;99.90
12470;DHT22;36499;46.484;13.832;2022-11-12T03:01:43;3.90;99.90
12470;DHT22;36499;46.484;13.832;2022-11-12T03:04:10;3.90;99.90
12470;DHT22;36499;46.484;13.832;2022-11-12T03:06:37;3.90;99.90
12470;DHT22;36499;46.484;13.832;2022-11-12T03:09:04;3.90;99.90
12470;DHT22;36499;46.484;13.832;2022-11-12T03:11:31;3.90;99.90
12470;DHT22;36499;46.484;13.832;2022-11-12T03:14:00;3.90;99.90
12470;DHT22;36499;46.484;13.832;2022-11-12T03:16:27;3.90;99.90
12470;DHT22;36499;46.484;13.832;2022-11-12T03:18:54;3.90;99.90
12470;DHT22;36499;46.484;13.832;2022-11-12T03:21:21;4.00;99.90
12470;DHT22;36499;46.484;13.832;2022-11-12T03:23:48;4.00;99.90
12470;DHT22;36499;46.484;13.832;2022-11-12T03:26:15;4.10;99.90
12470;DHT22;36499;46.484;13.832;2022-11-12T03:28:42;4.10;99.90
12470;DHT22;36499;46.484;13.832;2022-11-12T03:31:11;4.10;99.90
12470;DHT22;36499;46.484;13.832;2022-11-12T03:33:38;4.10;99.90
12470;DHT22;36499;46.484;13.832;2022-11-12T03:36:06;4.10;99.90
12470;DHT22;36499;46.484;13.832;2022-11-12T03:38:33;4.10;99.90
12470;DHT22;36499;46.484;13.832;2022-11-12T03:41:00;4.10;99.90
12470;DHT22;36499;46.484;13.832;2022-11-12T03:43:27;4.10;99.90
12470;DHT22;36499;46.484;13.832;2022-11-12T03:45:54;4.10;99.90
12470;DHT22;36499;46.484;13.832;2022-11-12T03:48:23;4.10;99.90
12470;DHT22;36499;46.484;13.832;2022-11-12T03:50:50;4.10;99.90
12470;DHT22;36499;46.484;13.832;2022-11-12T03:53:17;4.10;99.90
12470;DHT22;36499;46.484;13.832;2022-11-12T03:55:45;4.10;99.90
12470;DHT22;36499;46.484;13.832;2022-11-12T03:58:12;4.20;99.90
12470;DHT22;36499;46.484;13.832;2022-11-12T04:00:39;4.20;99.90
12470;DHT22;36499;46.484;13.832;2022-11-12T04:03:06;4.30;99.90
12470;DHT22;36499;46.484;13.832;2022-11-12T04:05:34;4.30;99.90
12470;DHT22;36499;46.484;13.832;2022-11-12T04:08:21;4.30;99.90
12470;DHT22;36499;46.484;13.832;2022-11-12T04:11:06;4.30;99.90
12470;DHT22;36499;46.484;13.832;2022-11-12T04:13:35;4.30;99.90
12470;DHT22;36499;46.484;13.832;2022-11-12T04:16:05;4.40;99.90
12470;DHT22;36499;46.484;13.832;2022-11-12T04:18:52;4.30;99.90
12470;DHT22;36499;46.484;13.832;2022-11-12T04:21:41;4.40;99.90
12470;DHT22;36499;46.484;13.832;2022-11-12T04:24:23;4.30;99.90
12470;DHT22;36499;46.484;13.832;2022-11-12T04:27:11;4.30;99.90
12470;DHT22;36499;46.484;13.832;2022-11-12T04:29:40;4.30;99.90
12470;DHT22;36499;46.484;13.832;2022-11-12T04:32:27;4.20;99.90
12470;DHT22;36499;46.484;13.832;2022-11-12T04:34:55;4.20;99.90
12470;DHT22;36499;46.484;13.832;2022-11-12T04:37:25;4.20;99.90
12470;DHT22;36499;46.484;13.832;2022-11-12T04:39:54;4.20;99.90
12470;DHT22;36499;46.484;13.832;2022-11-12T04:42:41;4.10;99.90
12470;DHT22;36499;46.484;13.832;2022-11-12T04:45:29;4.20;99.90
12470;DHT22;36499;46.484;13.832;2022-11-12T04:47:56;4.20;99.90
12470;DHT22;36499;46.484;13.832;2022-11-12T04:50:23;4.20;99.90
12470;DHT22;36499;46.484;13.832;2022-11-12T04:52:52;4.20;99.90
12470;DHT22;36499;46.484;13.832;2022-11-12T04:55:19;4.20;99.90
12470;DHT22;36499;46.484;13.832;2022-11-12T04:57:46;4.20;99.90
12470;DHT22;36499;46.484;13.832;2022-11-12T05:00:13;4.20;99.90
12470;DHT22;36499;46.484;13.832;2022-11-12T05:02:40;4.30;99.90
12470;DHT22;36499;46.484;13.832;2022-11-12T05:05:08;4.30;99.90
12470;DHT22;36499;46.484;13.832;2022-11-12T05:07:35;4.30;99.90
12470;DHT22;36499;46.484;13.832;2022-11-12T05:10:04;4.30;99.90
12470;DHT22;36499;46.484;13.832;2022-11-12T05:12:32;4.30;99.90
12470;DHT22;36499;46.484;13.832;2022-11-12T05:14:59;4.40;99.90
12470;DHT22;36499;46.484;13.832;2022-11-12T05:17:26;4.40;99.90
12470;DHT22;36499;46.484;13.832;2022-11-12T05:19:53;4.40;99.90
12470;DHT22;36499;46.484;13.832;2022-11-12T05:22:20;4.40;99.90
12470;DHT22;36499;46.484;13.832;2022-11-12T05:24:46;4.40;99.90
12470;DHT22;36499;46.484;13.832;2022-11-12T05:27:16;4.40;99.90
12470;DHT22;36499;46.484;13.832;2022-11-12T05:29:45;4.40;99.90
12470;DHT22;36499;46.484;13.832;2022-11-12T05:32:14;4.40;99.90
12470;DHT22;36499;46.484;13.832;2022-11-12T05:34:43;4.40;99.90
12470;DHT22;36499;46.484;13.832;2022-11-12T05:37:11;4.40;99.90
12470;DHT22;36499;46.484;13.832;2022-11-12T05:39:39;4.40;99.90
12470;DHT22;36499;46.484;13.832;2022-11-12T05:42:06;4.40;99.90
12470;DHT22;36499;46.484;13.832;2022-11-12T05:44:35;4.40;99.90
12470;DHT22;36499;46.484;13.832;2022-11-12T05:47:02;4.40;99.90
12470;DHT22;36499;46.484;13.832;2022-11-12T05:49:29;4.40;99.90
12470;DHT22;36499;46.484;13.832;2022-11-12T05:51:57;4.40;99.90
12470;DHT22;36499;46.484;13.832;2022-11-12T05:54:24;4.40;99.90
12470;DHT22;36499;46.484;13.832;2022-11-12T05:56:51;4.50;99.90
12470;DHT22;36499;46.484;13.832;2022-11-12T05:59:18;4.50;99.90
12470;DHT22;36499;46.484;13.832;2022-11-12T06:01:48;4.60;99.90
12470;DHT22;36499;46.484;13.832;2022-11-12T06:04:15;4.70;99.90
12470;DHT22;36499;46.484;13.832;2022-11-12T06:06:43;4.80;99.90
12470;DHT22;36499;46.484;13.832;2022-11-12T06:09:10;4.80;99.90
12470;DHT22;36499;46.484;13.832;2022-11-12T06:11:38;4.90;99.90
12470;DHT22;36499;46.484;13.832;2022-11-12T06:14:05;4.90;99.90
12470;DHT22;36499;46.484;13.832;2022-11-12T06:16:32;4.90;99.90
12470;DHT22;36499;46.484;13.832;2022-11-12T06:19:01;4.90;99.90
12470;DHT22;36499;46.484;13.832;2022-11-12T06:21:29;4.90;99.90
12470;DHT22;36499;46.484;13.832;2022-11-12T06:23:58;4.90;99.90
12470;DHT22;36499;46.484;13.832;2022-11-12T06:26:27;4.90;99.90
12470;DHT22;36499;46.484;13.832;2022-11-12T06:28:55;4.90;99.90
12470;DHT22;36499;46.484;13.832;2022-11-12T06:31:22;4.90;99.90
12470;DHT22;36499;46.484;13.832;2022-11-12T06:33:50;4.90;99.90
12470;DHT22;36499;46.484;13.832;2022-11-12T06:36:19;4.90;99.90
12470;DHT22;36499;46.484;13.832;2022-11-12T06:38:47;4.90;99.90
12470;DHT22;36499;46.484;13.832;2022-11-12T06:41:14;5.00;99.90
12470;DHT22;36499;46.484;13.832;2022-11-12T06:43:41;4.90;99.90
12470;DHT22;36499;46.484;13.832;2022-11-12T06:46:11;5.00;99.90
12470;DHT22;36499;46.484;13.832;2022-11-12T06:48:40;5.00;99.90
12470;DHT22;36499;46.484;13.832;2022-11-12T06:51:09;5.10;99.90
12470;DHT22;36499;46.484;13.832;2022-11-12T06:53:42;5.10;99.90
12470;DHT22;36499;46.484;13.832;2022-11-12T06:56:09;5.20;99.90
12470;DHT22;36499;46.484;13.832;2022-11-12T06:58:37;5.30;99.90
12470;DHT22;36499;46.484;13.832;2022-11-12T07:01:06;5.30;99.90
12470;DHT22;36499;46.484;13.832;2022-11-12T07:03:35;5.40;99.90
12470;DHT22;36499;46.484;13.832;2022-11-12T07:06:04;5.40;99.90
12470;DHT22;36499;46.484;13.832;2022-11-12T07:08:33;5.50;99.90
12470;DHT22;36499;46.484;13.832;2022-11-12T07:11:02;5.60;99.90
12470;DHT22;36499;46.484;13.832;2022-11-12T07:13:31;5.60;99.90
12470;DHT22;36499;46.484;13.832;2022-11-12T07:16:00;5.70;99.90
12470;DHT22;36499;46.484;13.832;2022-11-12T07:18:29;5.70;99.90
12470;DHT22;36499;46.484;13.832;2022-11-12T07:20:57;5.80;99.90
12470;DHT22;36499;46.484;13.832;2022-11-12T07:23:25;5.80;99.90
12470;DHT22;36499;46.484;13.832;2022-11-12T07:26:00;5.90;99.90
12470;DHT22;36499;46.484;13.832;2022-11-12T07:28:30;6.00;99.90
12470;DHT22;36499;46.484;13.832;2022-11-12T07:30:59;6.00;99.90
12470;DHT22;36499;46.484;13.832;2022-11-12T07:33:28;6.10;99.90
12470;DHT22;36499;46.484;13.832;2022-11-12T07:35:57;6.10;99.90
12470;DHT22;36499;46.484;13.832;2022-11-12T07:38:25;6.20;99.90
12470;DHT22;36499;46.484;13.832;2022-11-12T07:40:58;6.20;99.90
12470;DHT22;36499;46.484;13.832;2022-11-12T07:43:29;6.20;99.90
12470;DHT22;36499;46.484;13.832;2022-11-12T07:45:57;6.30;99.90
12470;DHT22;36499;46.484;13.832;2022-11-12T07:48:25;6.30;99.90
12470;DHT22;36499;46.484;13.832;2022-11-12T07:50:57;6.40;99.90
12470;DHT22;36499;46.484;13.832;2022-11-12T07:53:25;6.50;99.90
12470;DHT22;36499;46.484;13.832;2022-11-12T07:55:53;6.60;99.90
12470;DHT22;36499;46.484;13.832;2022-11-12T07:58:20;6.70;99.90
12470;DHT22;36499;46.484;13.832;2022-11-12T08:00:49;6.70;99.90
12470;DHT22;36499;46.484;13.832;2022-11-12T08:03:17;6.70;99.90
12470;DHT22;36499;46.484;13.832;2022-11-12T08:05:44;6.80;99.90
12470;DHT22;36499;46.484;13.832;2022-11-12T08:08:12;6.90;99.90
12470;DHT22;36499;46.484;13.832;2022-11-12T08:10:39;7.00;99.90
12470;DHT22;36499;46.484;13.832;2022-11-12T08:13:06;7.10;99.90
12470;DHT22;36499;46.484;13.832;2022-11-12T08:15:33;7.30;99.90
12470;DHT22;36499;46.484;13.832;2022-11-12T08:18:02;7.30;99.90
12470;DHT22;36499;46.484;13.832;2022-11-12T08:20:29;7.40;99.90
12470;DHT22;36499;46.484;13.832;2022-11-12T08:22:59;7.50;99.90
12470;DHT22;36499;46.484;13.832;2022-11-12T08:25:26;7.50;99.90
12470;DHT22;36499;46.484;13.832;2022-11-12T08:27:55;7.60;99.90
12470;DHT22;36499;46.484;13.832;2022-11-12T08:30:23;7.70;99.90
12470;DHT22;36499;46.484;13.832;2022-11-12T08:32:55;7.70;99.90
12470;DHT22;36499;46.484;13.832;2022-11-12T08:35:24;7.80;99.90
12470;DHT22;36499;46.484;13.832;2022-11-12T08:37:57;7.90;99.90
12470;DHT22;36499;46.484;13.832;2022-11-12T08:40:24;7.90;99.90
12470;DHT22;36499;46.484;13.832;2022-11-12T08:42:58;8.00;99.90
12470;DHT22;36499;46.484;13.832;2022-11-12T08:45:27;8.00;99.90
12470;DHT22;36499;46.484;13.832;2022-11-12T08:47:58;8.10;99.90
12470;DHT22;36499;46.484;13.832;2022-11-12T08:50:27;8.10;99.90
12470;DHT22;36499;46.484;13.832;2022-11-12T08:52:58;8.20;99.90
12470;DHT22;36499;46.484;13.832;2022-11-12T08:55:27;8.30;99.90
12470;DHT22;36499;46.484;13.832;2022-11-12T08:57:54;8.30;99.90
12470;DHT22;36499;46.484;13.832;2022-11-12T09:00:26;8.40;99.90
12470;DHT22;36499;46.484;13.832;2022-11-12T09:02:54;8.50;99.90
12470;DHT22;36499;46.484;13.832;2022-11-12T09:05:21;8.60;99.90
12470;DHT22;36499;46.484;13.832;2022-11-12T09:07:55;8.70;99.90
12470;DHT22;36499;46.484;13.832;2022-11-12T09:10:23;8.80;99.90
12470;DHT22;36499;46.484;13.832;2022-11-12T09:12:50;9.00;99.90
12470;DHT22;36499;46.484;13.832;2022-11-12T09:15:18;9.10;99.90
12470;DHT22;36499;46.484;13.832;2022-11-12T09:17:45;9.30;99.90
12470;DHT22;36499;46.484;13.832;2022-11-12T09:20:13;9.40;99.90
12470;DHT22;36499;46.484;13.832;2022-11-12T09:22:40;9.60;99.90
12470;DHT22;36499;46.484;13.832;2022-11-12T09:25:09;9.70;99.90
12470;DHT22;36499;46.484;13.832;2022-11-12T09:27:36;9.90;99.90
12470;DHT22;36499;46.484;13.832;2022-11-12T09:30:04;10.00;99.90
12470;DHT22;36499;46.484;13.832;2022-11-12T09:32:32;10.10;99.90
12470;DHT22;36499;46.484;13.832;2022-11-12T09:34:59;10.30;99.90
12470;DHT22;36499;46.484;13.832;2022-11-12T09:37:26;10.40;99.90
12470;DHT22;36499;46.484;13.832;2022-11-12T09:39:53;10.60;99.90
12470;DHT22;36499;46.484;13.832;2022-11-12T09:42:22;10.70;99.90
12470;DHT22;36499;46.484;13.832;2022-11-12T09:44:55;10.70;99.90
12470;DHT22;36499;46.484;13.832;2022-11-12T09:47:30;10.70;99.90
12470;DHT22;36499;46.484;13.832;2022-11-12T09:50:10;10.70;99.90
12470;DHT22;36499;46.484;13.832;2022-11-12T09:52:44;10.70;99.90
12470;DHT22;36499;46.484;13.832;2022-11-12T09:55:20;10.90;99.90
12470;DHT22;36499;46.484;13.832;2022-11-12T09:57:52;10.90;99.90
12470;DHT22;36499;46.484;13.832;2022-11-12T10:00:20;10.90;99.90
12470;DHT22;36499;46.484;13.832;2022-11-12T10:02:52;11.00;99.90
12470;DHT22;36499;46.484;13.832;2022-11-12T10:05:32;11.00;99.90
12470;DHT22;36499;46.484;13.832;2022-11-12T10:08:10;11.00;99.90
12470;DHT22;36499;46.484;13.832;2022-11-12T10:11:03;11.10;99.90
12470;DHT22;36499;46.484;13.832;2022-11-12T10:14:00;11.10;99.90
12470;DHT22;36499;46.484;13.832;2022-11-12T10:16:47;11.10;99.90
12470;DHT22;36499;46.484;13.832;2022-11-12T10:19:28;11.20;99.90
12470;DHT22;36499;46.484;13.832;2022-11-12T10:22:20;11.20;99.90
12470;DHT22;36499;46.484;13.832;2022-11-12T10:25:12;11.20;99.90
12470;DHT22;36499;46.484;13.832;2022-11-12T10:27:41;11.20;99.90
12470;DHT22;36499;46.484;13.832;2022-11-12T10:30:15;11.30;99.90
12470;DHT22;36499;46.484;13.832;2022-11-12T10:32:45;11.30;99.90
12470;DHT22;36499;46.484;13.832;2022-11-12T10:35:16;11.50;99.90
12470;DHT22;36499;46.484;13.832;2022-11-12T10:37:48;11.50;99.90
12470;DHT22;36499;46.484;13.832;2022-11-12T10:40:30;11.60;99.90
12470;DHT22;36499;46.484;13.832;2022-11-12T10:43:01;11.70;99.90
12470;DHT22;36499;46.484;13.832;2022-11-12T10:45:31;11.80;99.90
12470;DHT22;36499;46.484;13.832;2022-11-12T10:47:58;11.90;99.90
12470;DHT22;36499;46.484;13.832;2022-11-12T10:50:28;12.00;99.90
12470;DHT22;36499;46.484;13.832;2022-11-12T10:53:02;11.90;99.90
12470;DHT22;36499;46.484;13.832;2022-11-12T10:55:32;12.00;99.90
12470;DHT22;36499;46.484;13.832;2022-11-12T10:58:11;12.00;99.90
12470;DHT22;36499;46.484;13.832;2022-11-12T11:00:54;12.10;99.90
12470;DHT22;36499;46.484;13.832;2022-11-12T11:03:25;12.20;99.90
12470;DHT22;36499;46.484;13.832;2022-11-12T11:05:56;12.20;99.90
12470;DHT22;36499;46.484;13.832;2022-11-12T11:08:36;12.30;99.90
12470;DHT22;36499;46.484;13.832;2022-11-12T11:11:16;12.40;99.90
12470;DHT22;36499;46.484;13.832;2022-11-12T11:13:47;12.40;99.90
12470;DHT22;36499;46.484;13.832;2022-11-12T11:16:17;12.40;99.90
12470;DHT22;36499;46.484;13.832;2022-11-12T11:18:48;12.30;99.90
12470;DHT22;36499;46.484;13.832;2022-11-12T11:21:36;12.40;99.90
12470;DHT22;36499;46.484;13.832;2022-11-12T11:24:24;12.50;99.90
12470;DHT22;36499;46.484;13.832;2022-11-12T11:27:15;12.60;99.90
12470;DHT22;36499;46.484;13.832;2022-11-12T11:30:02;12.50;99.90
12470;DHT22;36499;46.484;13.832;2022-11-12T11:32:51;12.40;99.90
12470;DHT22;36499;46.484;13.832;2022-11-12T11:35:43;12.30;99.90
12470;DHT22;36499;46.484;13.832;2022-11-12T11:38:32;12.20;99.90
12470;DHT22;36499;46.484;13.832;2022-11-12T11:41:16;12.20;99.90
12470;DHT22;36499;46.484;13.832;2022-11-12T11:44:02;12.20;99.90
12470;DHT22;36499;46.484;13.832;2022-11-12T11:46:53;12.20;99.90
12470;DHT22;36499;46.484;13.832;2022-11-12T11:49:54;12.10;99.90
12470;DHT22;36499;46.484;13.832;2022-11-12T11:52:44;12.00;99.90
12470;DHT22;36499;46.484;13.832;2022-11-12T11:55:21;12.00;99.90
12470;DHT22;36499;46.484;13.832;2022-11-12T11:58:05;12.00;99.90
12470;DHT22;36499;46.484;13.832;2022-11-12T12:00:47;11.90;99.90
12470;DHT22;36499;46.484;13.832;2022-11-12T12:03:23;12.00;99.90
12470;DHT22;36499;46.484;13.832;2022-11-12T12:06:16;12.00;99.90
12470;DHT22;36499;46.484;13.832;2022-11-12T12:09:01;11.90;99.90
12470;DHT22;36499;46.484;13.832;2022-11-12T12:11:41;11.80;99.90
12470;DHT22;36499;46.484;13.832;2022-11-12T12:14:29;11.80;99.90
12470;DHT22;36499;46.484;13.832;2022-11-12T12:17:18;11.70;99.90
12470;DHT22;36499;46.484;13.832;2022-11-12T12:20:02;11.70;99.90
12470;DHT22;36499;46.484;13.832;2022-11-12T12:22:42;11.70;99.90
12470;DHT22;36499;46.484;13.832;2022-11-12T12:25:15;11.70;99.90
12470;DHT22;36499;46.484;13.832;2022-11-12T12:27:52;11.60;99.90
12470;DHT22;36499;46.484;13.832;2022-11-12T12:30:25;11.60;99.90
12470;DHT22;36499;46.484;13.832;2022-11-12T12:32:58;11.70;99.90
12470;DHT22;36499;46.484;13.832;2022-11-12T12:35:31;11.70;99.90
12470;DHT22;36499;46.484;13.832;2022-11-12T12:38:09;11.70;99.90
12470;DHT22;36499;46.484;13.832;2022-11-12T12:40:46;11.60;99.90
12470;DHT22;36499;46.484;13.832;2022-11-12T12:43:22;11.60;99.90
12470;DHT22;36499;46.484;13.832;2022-11-12T12:45:56;11.50;99.90
12470;DHT22;36499;46.484;13.832;2022-11-12T12:48:29;11.50;99.90
12470;DHT22;36499;46.484;13.832;2022-11-12T12:50:59;11.50;99.90
12470;DHT22;36499;46.484;13.832;2022-11-12T12:53:35;11.60;99.90
12470;DHT22;36499;46.484;13.832;2022-11-12T12:56:04;11.60;99.90
12470;DHT22;36499;46.484;13.832;2022-11-12T12:58:40;11.60;99.90
12470;DHT22;36499;46.484;13.832;2022-11-12T13:01:12;11.60;99.90
12470;DHT22;36499;46.484;13.832;2022-11-12T13:03:58;11.60;99.90
12470;DHT22;36499;46.484;13.832;2022-11-12T13:06:29;11.60;99.90
12470;DHT22;36499;46.484;13.832;2022-11-12T13:09:02;11.60;99.90
12470;DHT22;36499;46.484;13.832;2022-11-12T13:11:52;11.60;99.90
12470;DHT22;36499;46.484;13.832;2022-11-12T13:14:49;11.60;99.90
12470;DHT22;36499;46.484;13.832;2022-11-12T13:17:46;11.60;99.90
12470;DHT22;36499;46.484;13.832;2022-11-12T13:20:30;11.60;99.90
12470;DHT22;36499;46.484;13.832;2022-11-12T13:23:00;11.60;99.90
12470;DHT22;36499;46.484;13.832;2022-11-12T13:25:30;11.70;99.90
12470;DHT22;36499;46.484;13.832;2022-11-12T13:28:10;11.70;99.90
12470;DHT22;36499;46.484;13.832;2022-11-12T13:30:59;11.70;99.90
12470;DHT22;36499;46.484;13.832;2022-11-12T13:33:32;11.70;99.90
12470;DHT22;36499;46.484;13.832;2022-11-12T13:36:26;11.70;99.90
12470;DHT22;36499;46.484;13.832;2022-11-12T13:39:11;11.70;99.90
12470;DHT22;36499;46.484;13.832;2022-11-12T13:41:42;11.70;99.90
12470;DHT22;36499;46.484;13.832;2022-11-12T13:44:27;11.60;99.90
12470;DHT22;36499;46.484;13.832;2022-11-12T13:46:55;11.60;99.90
12470;DHT22;36499;46.484;13.832;2022-11-12T13:49:22;11.60;99.90
12470;DHT22;36499;46.484;13.832;2022-11-12T13:51:50;11.60;99.90
12470;DHT22;36499;46.484;13.832;2022-11-12T13:54:31;11.50;99.90
12470;DHT22;36499;46.484;13.832;2022-11-12T13:57:25;11.50;99.90
12470;DHT22;36499;46.484;13.832;2022-11-12T14:00:09;11.40;99.90
12470;DHT22;36499;46.484;13.832;2022-11-12T14:02:54;11.30;99.90
12470;DHT22;36499;46.484;13.832;2022-11-12T14:05:26;11.20;99.90
12470;DHT22;36499;46.484;13.832;2022-11-12T14:11:20;11.00;99.90
12470;DHT22;36499;46.484;13.832;2022-11-12T14:14:17;10.90;99.90
12470;DHT22;36499;46.484;13.832;2022-11-12T14:17:02;10.80;99.90
12470;DHT22;36499;46.484;13.832;2022-11-12T14:20:04;10.70;99.90
12470;DHT22;36499;46.484;13.832;2022-11-12T14:22:45;10.70;99.90
12470;DHT22;36499;46.484;13.832;2022-11-12T14:25:17;10.60;99.90
12470;DHT22;36499;46.484;13.832;2022-11-12T14:27:47;10.50;99.90
12470;DHT22;36499;46.484;13.832;2022-11-12T14:30:29;10.30;99.90
12470;DHT22;36499;46.484;13.832;2022-11-12T14:32:58;10.30;99.90
12470;DHT22;36499;46.484;13.832;2022-11-12T14:35:35;10.20;99.90
12470;DHT22;36499;46.484;13.832;2022-11-12T14:38:10;10.10;99.90
12470;DHT22;36499;46.484;13.832;2022-11-12T14:40:45;10.00;99.90
12470;DHT22;36499;46.484;13.832;2022-11-12T14:43:22;10.00;99.90
12470;DHT22;36499;46.484;13.832;2022-11-12T14:45:54;10.00;99.90
12470;DHT22;36499;46.484;13.832;2022-11-12T14:48:24;9.90;99.90
12470;DHT22;36499;46.484;13.832;2022-11-12T14:50:56;9.80;99.90
12470;DHT22;36499;46.484;13.832;2022-11-12T14:53:31;9.80;99.90
12470;DHT22;36499;46.484;13.832;2022-11-12T14:56:02;9.70;99.90
12470;DHT22;36499;46.484;13.832;2022-11-12T14:58:34;9.60;99.90
12470;DHT22;36499;46.484;13.832;2022-11-12T15:04:16;9.60;99.90
12470;DHT22;36499;46.484;13.832;2022-11-12T15:06:51;9.50;99.90
12470;DHT22;36499;46.484;13.832;2022-11-12T15:09:32;9.40;99.90
12470;DHT22;36499;46.484;13.832;2022-11-12T15:12:02;9.20;99.90
12470;DHT22;36499;46.484;13.832;2022-11-12T15:14:31;9.20;99.90
12470;DHT22;36499;46.484;13.832;2022-11-12T15:16:59;9.10;99.90
12470;DHT22;36499;46.484;13.832;2022-11-12T15:19:31;9.00;99.90
12470;DHT22;36499;46.484;13.832;2022-11-12T15:22:01;9.10;99.90
12470;DHT22;36499;46.484;13.832;2022-11-12T15:24:30;9.00;99.90
12470;DHT22;36499;46.484;13.832;2022-11-12T15:27:00;8.90;99.90
12470;DHT22;36499;46.484;13.832;2022-11-12T15:29:48;8.90;99.90
12470;DHT22;36499;46.484;13.832;2022-11-12T15:32:32;8.90;99.90
12470;DHT22;36499;46.484;13.832;2022-11-12T15:35:01;8.90;99.90
12470;DHT22;36499;46.484;13.832;2022-11-12T15:37:31;8.80;99.90
12470;DHT22;36499;46.484;13.832;2022-11-12T15:40:10;8.70;99.90
12470;DHT22;36499;46.484;13.832;2022-11-12T15:42:44;8.70;99.90
12470;DHT22;36499;46.484;13.832;2022-11-12T15:45:15;8.60;99.90
12470;DHT22;36499;46.484;13.832;2022-11-12T15:47:44;8.60;99.90
12470;DHT22;36499;46.484;13.832;2022-11-12T15:50:16;8.60;99.90
12470;DHT22;36499;46.484;13.832;2022-11-12T15:52:46;8.50;99.90
12470;DHT22;36499;46.484;13.832;2022-11-12T15:55:14;8.50;99.90
12470;DHT22;36499;46.484;13.832;2022-11-12T15:57:44;8.30;99.90
12470;DHT22;36499;46.484;13.832;2022-11-12T16:00:15;8.30;99.90
12470;DHT22;36499;46.484;13.832;2022-11-12T16:02:46;8.20;99.90